Harderwijk, Netherlands
Current Conditions -  °F | °C
As of 1:55 PM on Thursday 30 Oct 2014 (Local Time) from EHDL Reporting Station
Haze Haze  
Wind Chill: 57°   Ceiling: 400
Heat Index: 57°   Visibility: 1.8mi
Dew Point: 55°   Wind: 8mph
Humidity: 94%   Direction: 170°S
Pressure: 30.18"   Gusts: NA
Location:  52.34°N, 5.62°E
Report Text: EHDL 301255Z AUTO 17007KT 3000 BR BKN004 OVC005 14/13 Q1022 YLO
Loading
Personal Weather Stations






























Interactive Weather Map
Tropical Storm Tracking
New forecast layout! Learn more

10-Day Weather Forecast

Advertisements
Track Severe Weather on mobile